Main page
METAR-TAF:

METAR-TAF

Airports :

N'Djamena International Airport

N'Djamena, Chad

latitude: 12-08N, longitude: 015-02E, elevation: 295 m

Current weather observation

The report was made 48 minutes ago, at 09:00 UTC
Wind 10 kt from the North/Northeast, varying between North/Northeast and East
Temperature 30°C
Humidity 15%
Pressure 1014 hPa
Visibility: 8000 m

METAR: FTTJ 170900Z 02010KT 020V080 8000 NSC 30/01 Q1014 NOSIG

Time: 10:48 (09:48 UTC)

Forecast

The report was made 4 hours and 48 minutes ago, at 05:00 UTC
Forecast valid from 17 at 06 UTC to 18 at 12 UTC
Wind 8 kt from the North/Northeast
Visibility 10 km or more
no clouds below 1500 m and no cumulonimbus
Temporary
from 17 at 17 UTC to 17 at 20 UTC
Visibility: 4000 m
haze

TAF: FTTJ 170500Z 1706/1812 03008KT CAVOK TEMPO 1717/1720 4000 HZ

Weather observations and forecasts of more than 4000 airports (METAR and TAF reports).

The available stations are represented by yellow and red dots on the map.

Hover mouse over dot to see the name of the station.

Then click to see weather observations and forecasts.

To change the map : click on the green buttons with a black cross to zoom in, on the green button with a dash to zoom out, or on the green arrows for adjacent maps.


METAR-TAF: